MSC Annamaria — H3HN — position and weather

sailwx.info

Track history (hours):
 
Tides and Currents Weather Stations Pressure Air Temp Water Temp Dewpoint Dewpoint Depression Visibility Wind Speed Wind Dir Waves Ship Positions

MSC Annamaria

Last reported at 2016-May-24 11:19 UTC. Time now 2016-May-25 13:02 UTC.
Position N 36°05' E 024°20'.

Length 188 m; draft 7.7 m.

Type: Ship (hazmat cat A). MMSI: 353852000.

Date/timePositionNaut miles runAvg speedWind from/ knotsBaromVisibWave heightAir tempDewpointWater temp
2016-May-24 11:19N 36°05' E 024°20'49211.7
2016-May-22 17:27N 36°03' E 034°28'1212.9
2016-May-22 16:34N 36°07' E 034°41'1513.1
2016-May-22 15:26N 36°13' E 034°58'1112.9
2016-May-22 14:33N 36°17' E 035°12'1412.8
2016-May-22 13:28N 36°22' E 035°28'1213.0
2016-May-22 12:34N 36°26' E 035°41'43 2.3
2016-May-21 18:07N 36°38' E 034°50'713.0
2016-May-21 17:33N 36°43' E 034°43'  
2016-May-18 20:18N 34°31' E 033°30'1013.7
2016-May-18 19:33N 34°34' E 033°18'1312.8
2016-May-18 18:33N 34°39' E 033°04'1 0.7
2016-May-18 17:33N 34°40' E 033°04'0 0.0
2016-May-18 16:32N 34°40' E 033°04'0 0.0
2016-May-18 15:33N 34°40' E 033°04'0 0.0
2016-May-18 14:31N 34°40' E 033°03'4 4.1
2016-May-18 13:33N 34°36' E 033°04'1110.9
2016-May-18 12:33N 34°26' E 032°59'1413.3
2016-May-18 11:32N 34°16' E 032°48'24212.0
2016-May-17 15:19N 31°13' E 029°41'0 0.0
2016-May-17 12:32N 31°13' E 029°41'0 0.0
2016-May-17 02:21N 31°13' E 029°41'0 0.0
2016-May-17 01:31N 31°13' E 029°41'0 0.0
2016-May-16 15:32N 31°13' E 029°40'14 7.2
2016-May-16 13:33N 31°26' E 029°47'2812.4
2016-May-16 11:19N 31°40' E 030°15'1013.1
2016-May-16 10:33N 31°41' E 030°27'1313.0
2016-May-16 09:33N 31°43' E 030°42'4312.8
2016-May-16 06:11N 31°47' E 031°32'1012.3
2016-May-16 05:24N 31°47' E 031°44'2612.2
2016-May-16 03:15N 31°34' E 032°11'  
Track history (hours):
 
Tides and Currents Weather Stations Pressure Air Temp Water Temp Dewpoint Dewpoint Depression Visibility Wind Speed Wind Dir Waves Ship Positions

MSC Annamaria

Last reported at 2016-May-24 11:19 UTC. Time now 2016-May-25 13:02 UTC.
Position N 36°05' E 024°20'.

Length 188 m; draft 7.7 m.

Type: Ship (hazmat cat A). MMSI: 353852000.

Date/timePositionNaut miles runAvg speedWind from/ knotsBaromVisibWave heightAir tempDewpointWater temp
2016-May-24 11:19N 36°05' E 024°20'49211.7
2016-May-22 17:27N 36°03' E 034°28'1212.9
2016-May-22 16:34N 36°07' E 034°41'1513.1
2016-May-22 15:26N 36°13' E 034°58'1112.9
2016-May-22 14:33N 36°17' E 035°12'1412.8
2016-May-22 13:28N 36°22' E 035°28'1213.0
2016-May-22 12:34N 36°26' E 035°41'43 2.3
2016-May-21 18:07N 36°38' E 034°50'713.0
2016-May-21 17:33N 36°43' E 034°43'  
2016-May-18 20:18N 34°31' E 033°30'1013.7
2016-May-18 19:33N 34°34' E 033°18'1312.8
2016-May-18 18:33N 34°39' E 033°04'1 0.7
2016-May-18 17:33N 34°40' E 033°04'0 0.0
2016-May-18 16:32N 34°40' E 033°04'0 0.0
2016-May-18 15:33N 34°40' E 033°04'0 0.0
2016-May-18 14:31N 34°40' E 033°03'4 4.1
2016-May-18 13:33N 34°36' E 033°04'1110.9
2016-May-18 12:33N 34°26' E 032°59'1413.3
2016-May-18 11:32N 34°16' E 032°48'24212.0
2016-May-17 15:19N 31°13' E 029°41'0 0.0
2016-May-17 12:32N 31°13' E 029°41'0 0.0
2016-May-17 02:21N 31°13' E 029°41'0 0.0
2016-May-17 01:31N 31°13' E 029°41'0 0.0
2016-May-16 15:32N 31°13' E 029°40'14 7.2
2016-May-16 13:33N 31°26' E 029°47'2812.4
2016-May-16 11:19N 31°40' E 030°15'1013.1
2016-May-16 10:33N 31°41' E 030°27'1313.0
2016-May-16 09:33N 31°43' E 030°42'4312.8
2016-May-16 06:11N 31°47' E 031°32'1012.3
2016-May-16 05:24N 31°47' E 031°44'2612.2
2016-May-16 03:15N 31°34' E 032°11'  

Dump ship's entire track history